Time;durP1;ratioP1;P1;durP2;ratioP2;P2;SDS_P1;SDS_P2;PMS_P1;PMS_P2;Temp;Humidity;BMP_temperature;BMP_pressure;BME280_temperature;BME280_humidity;BME280_pressure;Samples;Min_cycle;Max_cycle;Signal;HPM_P1;HPM_P2
2022/10/17 00:00:04;;;;;;;46.33;31.30;;;;;;;;;;5070535;28;20051;-68
2022/10/17 00:03:09;;;;;;;49.78;32.40;;;;;;;;;;5070493;28;20035;-68
2022/10/17 00:06:14;;;;;;;53.67;32.88;;;;;;;;;;5070568;28;20043;-68
2022/10/17 00:09:18;;;;;;;50.70;32.88;;;;;;;;;;5070928;28;20539;-68
2022/10/17 00:12:23;;;;;;;54.75;33.05;;;;;;;;;;5070933;28;20408;-68
2022/10/17 00:15:27;;;;;;;46.80;30.13;;;;;;;;;;5070859;28;20187;-68
2022/10/17 00:18:32;;;;;;;49.95;32.90;;;;;;;;;;5069905;28;20051;-69
2022/10/17 00:21:36;;;;;;;51.80;33.55;;;;;;;;;;5070506;28;20044;-68
2022/10/17 00:24:43;;;;;;;48.28;32.33;;;;;;;;;;5071503;28;20461;-68
2022/10/17 00:27:47;;;;;;;53.88;33.58;;;;;;;;;;5074538;28;20063;-68
2022/10/17 00:31:10;;;;;;;50.58;33.47;;;;;;;;;;5073342;28;20404;-68
2022/10/17 00:34:14;;;;;;;54.30;34.03;;;;;;;;;;5073521;28;20052;-68
2022/10/17 00:37:18;;;;;;;54.80;35.78;;;;;;;;;;5074015;28;20071;-68
2022/10/17 00:40:23;;;;;;;50.35;32.60;;;;;;;;;;5074263;28;20044;-68
2022/10/17 00:43:28;;;;;;;56.13;36.28;;;;;;;;;;5073944;28;20044;-68
2022/10/17 00:46:36;;;;;;;59.15;35.35;;;;;;;;;;5074113;28;20039;-68
2022/10/17 00:49:40;;;;;;;59.55;36.70;;;;;;;;;;5073955;28;20039;-68
2022/10/17 00:52:45;;;;;;;51.42;34.72;;;;;;;;;;5074154;28;20071;-68
2022/10/17 00:55:52;;;;;;;49.47;33.30;;;;;;;;;;5073013;28;20042;-68
2022/10/17 00:58:57;;;;;;;50.38;32.75;;;;;;;;;;5073853;28;20048;-68
2022/10/17 01:02:09;;;;;;;54.75;33.88;;;;;;;;;;5074044;28;20036;-68
2022/10/17 01:05:14;;;;;;;52.25;32.47;;;;;;;;;;5073181;28;20052;-68
2022/10/17 01:08:20;;;;;;;51.33;34.53;;;;;;;;;;5072977;28;20044;-69
2022/10/17 01:11:33;;;;;;;54.05;33.28;;;;;;;;;;5072780;28;20419;-68
2022/10/17 01:14:58;;;;;;;55.22;36.95;;;;;;;;;;5073444;28;20040;-68
2022/10/17 01:18:17;;;;;;;62.28;35.28;;;;;;;;;;5072724;28;20056;-68
2022/10/17 01:21:22;;;;;;;54.83;34.28;;;;;;;;;;5073807;28;20044;-68
2022/10/17 01:24:45;;;;;;;53.90;34.70;;;;;;;;;;5073533;28;20059;-68
2022/10/17 01:27:55;;;;;;;49.92;33.17;;;;;;;;;;5072558;28;20047;-68
2022/10/17 01:31:07;;;;;;;53.63;35.15;;;;;;;;;;5073031;28;20063;-68
2022/10/17 01:34:16;;;;;;;58.17;36.05;;;;;;;;;;5072337;28;20028;-68
2022/10/17 01:37:47;;;;;;;60.97;37.28;;;;;;;;;;5072624;28;20052;-68
2022/10/17 01:40:55;;;;;;;61.50;33.88;;;;;;;;;;5065299;28;20048;-68
2022/10/17 01:44:04;;;;;;;55.28;35.28;;;;;;;;;;5072543;28;20506;-69
2022/10/17 01:47:15;;;;;;;58.25;37.10;;;;;;;;;;5073016;28;20043;-68
2022/10/17 01:50:28;;;;;;;55.20;35.30;;;;;;;;;;5072368;28;20067;-68
2022/10/17 01:53:34;;;;;;;58.17;37.10;;;;;;;;;;5072720;28;20508;-68
2022/10/17 01:56:39;;;;;;;57.38;36.38;;;;;;;;;;5071618;28;20067;-68
2022/10/17 01:59:47;;;;;;;54.08;35.15;;;;;;;;;;5071755;28;20043;-68
2022/10/17 02:02:57;;;;;;;54.58;35.67;;;;;;;;;;5072029;28;20063;-68
2022/10/17 02:06:02;;;;;;;60.60;35.83;;;;;;;;;;5072631;28;20044;-69
2022/10/17 02:09:19;;;;;;;55.20;35.78;;;;;;;;;;5071729;28;20052;-68
2022/10/17 02:12:27;;;;;;;52.72;34.60;;;;;;;;;;5071560;28;20048;-68
2022/10/17 02:15:37;;;;;;;49.80;33.42;;;;;;;;;;5071412;28;20040;-68
2022/10/17 02:19:00;;;;;;;52.03;32.50;;;;;;;;;;5072541;28;20061;-68
2022/10/17 02:22:20;;;;;;;49.47;29.77;;;;;;;;;;5071324;28;20044;-68
2022/10/17 02:26:00;;;;;;;53.58;31.58;;;;;;;;;;5071060;28;20044;-69
2022/10/17 02:29:26;;;;;;;46.97;30.83;;;;;;;;;;5020456;28;20429;-69
2022/10/17 02:32:34;;;;;;;52.40;30.70;;;;;;;;;;5072129;28;20052;-68
2022/10/17 02:35:41;;;;;;;46.55;32.50;;;;;;;;;;5071188;28;20040;-68
2022/10/17 02:38:46;;;;;;;49.85;31.40;;;;;;;;;;5071137;28;20051;-68
2022/10/17 02:41:51;;;;;;;49.55;30.25;;;;;;;;;;5071177;28;20039;-68
2022/10/17 02:44:58;;;;;;;44.65;30.00;;;;;;;;;;5072182;28;20602;-68
2022/10/17 02:48:05;;;;;;;43.70;29.55;;;;;;;;;;5070214;28;20043;-68
2022/10/17 02:51:13;;;;;;;53.40;30.08;;;;;;;;;;5070629;28;20043;-68
2022/10/17 02:54:18;;;;;;;45.42;29.98;;;;;;;;;;5071851;28;20047;-68
2022/10/17 02:57:28;;;;;;;47.17;29.33;;;;;;;;;;5070463;28;20059;-68
2022/10/17 03:00:33;;;;;;;43.85;28.65;;;;;;;;;;5071413;28;20039;-68
2022/10/17 03:03:38;;;;;;;41.05;28.60;;;;;;;;;;5059035;28;20044;-68
2022/10/17 03:06:43;;;;;;;47.45;29.08;;;;;;;;;;5070835;28;20043;-68
2022/10/17 03:09:47;;;;;;;43.45;27.63;;;;;;;;;;5070447;28;20053;-68
2022/10/17 03:12:51;;;;;;;44.65;29.15;;;;;;;;;;5071161;28;20040;-68
2022/10/17 03:15:56;;;;;;;44.17;29.95;;;;;;;;;;5070668;28;20399;-68
2022/10/17 03:19:00;;;;;;;47.00;27.75;;;;;;;;;;5070523;28;20083;-67
2022/10/17 03:22:05;;;;;;;48.08;28.90;;;;;;;;;;5070455;28;20501;-68
2022/10/17 03:25:11;;;;;;;46.30;27.70;;;;;;;;;;5070369;28;20150;-68
2022/10/17 03:28:16;;;;;;;49.08;29.02;;;;;;;;;;5070204;28;20044;-68
2022/10/17 03:31:20;;;;;;;44.60;26.88;;;;;;;;;;5070714;28;20246;-68
2022/10/17 03:34:25;;;;;;;46.00;27.05;;;;;;;;;;5070536;28;20055;-68
2022/10/17 03:37:29;;;;;;;43.50;28.00;;;;;;;;;;5070041;28;20249;-68
2022/10/17 03:40:34;;;;;;;46.22;29.77;;;;;;;;;;5069898;28;20039;-68
2022/10/17 03:43:38;;;;;;;52.65;27.25;;;;;;;;;;5070269;28;20052;-68
2022/10/17 03:46:43;;;;;;;43.03;27.20;;;;;;;;;;5071059;28;20055;-68
2022/10/17 03:49:47;;;;;;;42.50;26.83;;;;;;;;;;5069980;28;20047;-68
2022/10/17 03:52:53;;;;;;;42.22;25.23;;;;;;;;;;5058956;28;20047;-68
2022/10/17 03:56:08;;;;;;;42.30;25.45;;;;;;;;;;5069874;28;20047;-68
2022/10/17 03:59:13;;;;;;;42.30;26.65;;;;;;;;;;5069727;28;20048;-68
2022/10/17 04:02:18;;;;;;;45.38;28.27;;;;;;;;;;5074039;28;20044;-68
2022/10/17 04:05:23;;;;;;;51.30;27.45;;;;;;;;;;5074055;28;20051;-68
2022/10/17 04:08:28;;;;;;;41.75;25.80;;;;;;;;;;5074081;28;20052;-68
2022/10/17 04:11:49;;;;;;;43.95;27.70;;;;;;;;;;5074267;28;20044;-67
2022/10/17 04:14:54;;;;;;;47.47;27.50;;;;;;;;;;5074024;28;20044;-67
2022/10/17 04:17:58;;;;;;;44.58;26.83;;;;;;;;;;5073915;28;20079;-68
2022/10/17 04:21:06;;;;;;;42.97;26.10;;;;;;;;;;5073914;28;20043;-68
2022/10/17 04:24:11;;;;;;;39.08;26.30;;;;;;;;;;5075197;28;20294;-68
2022/10/17 04:27:35;;;;;;;42.60;25.60;;;;;;;;;;5079174;28;20039;-67
2022/10/17 04:30:40;;;;;;;47.10;27.55;;;;;;;;;;5073309;28;20060;-67
2022/10/17 04:33:49;;;;;;;53.00;27.80;;;;;;;;;;5073788;28;20036;-68
2022/10/17 04:36:53;;;;;;;43.50;28.42;;;;;;;;;;5073268;28;20051;-68
2022/10/17 04:39:59;;;;;;;42.92;26.88;;;;;;;;;;5073537;28;20392;-67
2022/10/17 04:43:08;;;;;;;43.28;28.42;;;;;;;;;;5073276;28;20035;-67
2022/10/17 04:46:14;;;;;;;44.08;27.17;;;;;;;;;;5073194;28;20047;-68
2022/10/17 04:49:19;;;;;;;55.63;28.73;;;;;;;;;;5073131;28;20051;-68
2022/10/17 04:52:27;;;;;;;51.65;27.15;;;;;;;;;;5073099;28;20047;-67
2022/10/17 04:55:31;;;;;;;49.17;26.75;;;;;;;;;;5072852;28;20059;-67
2022/10/17 04:58:35;;;;;;;54.45;25.95;;;;;;;;;;5072880;28;20052;-68
2022/10/17 05:01:40;;;;;;;52.40;26.98;;;;;;;;;;5061677;28;20044;-68
2022/10/17 05:04:44;;;;;;;44.05;26.05;;;;;;;;;;5072548;28;20067;-68
2022/10/17 05:07:50;;;;;;;39.10;25.08;;;;;;;;;;5072974;28;20534;-67
2022/10/17 05:10:56;;;;;;;40.58;24.98;;;;;;;;;;5072192;28;20048;-66
2022/10/17 05:14:01;;;;;;;50.08;25.80;;;;;;;;;;5072943;28;20051;-66
2022/10/17 05:17:08;;;;;;;42.92;25.00;;;;;;;;;;5072585;28;20502;-66
2022/10/17 05:20:12;;;;;;;46.30;23.80;;;;;;;;;;5072631;28;20226;-66
2022/10/17 05:23:18;;;;;;;44.88;25.23;;;;;;;;;;5073331;28;20043;-66
2022/10/17 05:26:22;;;;;;;48.22;25.65;;;;;;;;;;5072478;28;20412;-66
2022/10/17 05:29:27;;;;;;;44.97;25.25;;;;;;;;;;5072383;28;20047;-66
2022/10/17 05:32:40;;;;;;;48.75;25.20;;;;;;;;;;5072407;28;20051;-66
2022/10/17 05:35:46;;;;;;;46.90;24.17;;;;;;;;;;5072400;28;20380;-66
2022/10/17 05:38:51;;;;;;;41.25;23.95;;;;;;;;;;5072169;28;20059;-66
2022/10/17 05:41:55;;;;;;;49.42;25.05;;;;;;;;;;5072278;28;20047;-66
2022/10/17 05:45:00;;;;;;;53.97;26.08;;;;;;;;;;5071802;28;20064;-66
2022/10/17 05:48:05;;;;;;;50.28;25.92;;;;;;;;;;5072113;28;20059;-66
2022/10/17 05:51:10;;;;;;;57.30;28.58;;;;;;;;;;5071677;28;20106;-66
2022/10/17 05:54:14;;;;;;;52.65;24.02;;;;;;;;;;5073563;28;20039;-66
2022/10/17 05:57:19;;;;;;;66.50;27.15;;;;;;;;;;5072676;28;20047;-66
2022/10/17 06:00:23;;;;;;;61.58;26.15;;;;;;;;;;5071537;28;20052;-64
2022/10/17 06:03:34;;;;;;;68.70;28.15;;;;;;;;;;5071640;28;20051;-66
2022/10/17 06:06:43;;;;;;;100.32;28.20;;;;;;;;;;5071990;28;20137;-67
2022/10/17 06:09:47;;;;;;;57.05;24.83;;;;;;;;;;5071499;28;20043;-65
2022/10/17 06:12:51;;;;;;;46.92;25.60;;;;;;;;;;5071586;28;20048;-67
2022/10/17 06:15:56;;;;;;;44.83;24.45;;;;;;;;;;5072378;28;20048;-66
2022/10/17 06:19:00;;;;;;;55.42;25.13;;;;;;;;;;5071312;28;20388;-65
2022/10/17 06:22:05;;;;;;;39.08;25.27;;;;;;;;;;5071185;28;20408;-67
2022/10/17 06:25:10;;;;;;;42.63;23.77;;;;;;;;;;5071255;28;20391;-66
2022/10/17 06:28:14;;;;;;;35.50;24.45;;;;;;;;;;5071995;28;20430;-66
2022/10/17 06:31:19;;;;;;;32.50;21.08;;;;;;;;;;5070755;28;20075;-66
2022/10/17 06:34:23;;;;;;;49.65;22.05;;;;;;;;;;5071096;28;20060;-66
2022/10/17 06:37:31;;;;;;;27.25;19.55;;;;;;;;;;5071842;28;20048;-66
2022/10/17 06:40:35;;;;;;;28.27;19.02;;;;;;;;;;5071072;28;20047;-66
2022/10/17 06:43:42;;;;;;;37.47;19.15;;;;;;;;;;5070621;28;20048;-66
2022/10/17 06:47:05;;;;;;;31.00;20.00;;;;;;;;;;5071063;28;20043;-67
2022/10/17 06:50:10;;;;;;;34.72;20.70;;;;;;;;;;5070766;28;20048;-66
2022/10/17 06:53:23;;;;;;;34.53;19.65;;;;;;;;;;5071544;28;20049;-66
2022/10/17 06:56:48;;;;;;;28.65;19.75;;;;;;;;;;5071732;28;20516;-68
2022/10/17 06:59:54;;;;;;;28.92;19.90;;;;;;;;;;5071202;28;20047;-65
2022/10/17 07:03:06;;;;;;;29.42;19.55;;;;;;;;;;5070669;28;20044;-66
2022/10/17 07:06:10;;;;;;;50.67;19.88;;;;;;;;;;5070552;28;20044;-66
2022/10/17 07:09:16;;;;;;;33.33;19.65;;;;;;;;;;5070117;28;20047;-66
2022/10/17 07:12:22;;;;;;;49.33;22.73;;;;;;;;;;5070442;28;20051;-66
2022/10/17 07:15:27;;;;;;;33.47;19.75;;;;;;;;;;5070650;28;20392;-67
2022/10/17 07:18:31;;;;;;;33.97;20.85;;;;;;;;;;5070210;28;20060;-66
2022/10/17 07:21:35;;;;;;;34.25;19.77;;;;;;;;;;5070320;28;20040;-66
2022/10/17 07:24:40;;;;;;;37.00;21.25;;;;;;;;;;5070023;28;20047;-66
2022/10/17 07:27:52;;;;;;;39.40;21.50;;;;;;;;;;5070351;28;20063;-66
2022/10/17 07:31:03;;;;;;;35.63;19.52;;;;;;;;;;5069915;28;20052;-65
2022/10/17 07:34:08;;;;;;;27.53;19.40;;;;;;;;;;5069842;28;20048;-67
2022/10/17 07:37:13;;;;;;;33.13;19.90;;;;;;;;;;5070126;28;20048;-65
2022/10/17 07:40:23;;;;;;;31.27;20.27;;;;;;;;;;5069860;28;20047;-65
2022/10/17 07:43:27;;;;;;;44.55;25.65;;;;;;;;;;5069824;28;20058;-68
2022/10/17 07:46:32;;;;;;;38.70;23.67;;;;;;;;;;5070074;28;20055;-67
2022/10/17 07:49:41;;;;;;;35.13;20.90;;;;;;;;;;5069777;28;20044;-65
2022/10/17 07:52:45;;;;;;;36.45;21.92;;;;;;;;;;5071122;28;20048;-67
2022/10/17 07:55:50;;;;;;;37.50;22.08;;;;;;;;;;5070875;28;20494;-67
2022/10/17 07:58:55;;;;;;;45.90;27.52;;;;;;;;;;5070474;28;20056;-67
2022/10/17 08:01:59;;;;;;;33.05;23.73;;;;;;;;;;5070574;28;20487;-67
2022/10/17 08:05:04;;;;;;;39.35;22.83;;;;;;;;;;5068536;28;20084;-65
2022/10/17 08:08:08;;;;;;;38.03;22.92;;;;;;;;;;5070838;28;20039;-68
2022/10/17 08:11:13;;;;;;;36.55;24.85;;;;;;;;;;5070563;28;20510;-69
2022/10/17 08:14:18;;;;;;;39.53;24.90;;;;;;;;;;5070661;28;20047;-67
2022/10/17 08:17:22;;;;;;;45.00;27.52;;;;;;;;;;5070571;28;20047;-68
2022/10/17 08:20:27;;;;;;;35.38;23.55;;;;;;;;;;5070452;28;20040;-69
2022/10/17 08:23:31;;;;;;;38.28;24.58;;;;;;;;;;5070571;28;20040;-66
2022/10/17 08:26:35;;;;;;;39.63;24.55;;;;;;;;;;5070894;28;20040;-67
2022/10/17 08:29:40;;;;;;;36.65;24.88;;;;;;;;;;5070084;28;20040;-67
2022/10/17 08:32:44;;;;;;;49.97;28.50;;;;;;;;;;5070308;28;20060;-67
2022/10/17 08:35:48;;;;;;;44.42;26.30;;;;;;;;;;5070357;28;20048;-67
2022/10/17 08:38:52;;;;;;;36.40;25.48;;;;;;;;;;5070036;28;20511;-67
2022/10/17 08:42:00;;;;;;;55.05;33.38;;;;;;;;;;5070379;28;20048;-65
2022/10/17 08:45:04;;;;;;;41.78;27.77;;;;;;;;;;5070208;28;20039;-66
2022/10/17 08:48:14;;;;;;;40.90;27.63;;;;;;;;;;5074313;28;20043;-66
2022/10/17 08:51:24;;;;;;;39.28;24.90;;;;;;;;;;5074201;28;20055;-66
2022/10/17 08:54:38;;;;;;;32.50;21.25;;;;;;;;;;5074200;28;20047;-67
2022/10/17 08:57:42;;;;;;;27.02;19.85;;;;;;;;;;5072903;28;20044;-67
2022/10/17 09:00:53;;;;;;;30.95;17.50;;;;;;;;;;5073620;28;20051;-66
2022/10/17 09:04:03;;;;;;;25.80;17.20;;;;;;;;;;5074063;28;20472;-68
2022/10/17 09:07:26;;;;;;;26.05;17.00;;;;;;;;;;5074204;28;20419;-67
2022/10/17 09:10:31;;;;;;;24.90;15.77;;;;;;;;;;5073709;28;20048;-66
2022/10/17 09:13:44;;;;;;;31.40;20.38;;;;;;;;;;5074210;28;20044;-68
2022/10/17 09:16:57;;;;;;;25.27;17.45;;;;;;;;;;5073418;28;20056;-66
2022/10/17 09:20:09;;;;;;;30.60;17.58;;;;;;;;;;5073456;28;20040;-65
2022/10/17 09:23:22;;;;;;;27.73;19.13;;;;;;;;;;5073864;28;20035;-66
2022/10/17 09:26:26;;;;;;;32.38;20.52;;;;;;;;;;5073277;28;20052;-66
2022/10/17 09:29:31;;;;;;;23.52;15.18;;;;;;;;;;5073334;28;20043;-66
2022/10/17 09:32:37;;;;;;;28.83;18.65;;;;;;;;;;5073443;28;20044;-66
2022/10/17 09:35:44;;;;;;;20.88;13.85;;;;;;;;;;5072973;28;20404;-66
2022/10/17 09:39:02;;;;;;;24.38;15.27;;;;;;;;;;5072930;28;20055;-67
2022/10/17 09:42:09;;;;;;;21.30;14.23;;;;;;;;;;5073019;28;20040;-67
2022/10/17 09:45:18;;;;;;;24.60;15.27;;;;;;;;;;5073648;28;20387;-67
2022/10/17 09:48:26;;;;;;;27.00;16.77;;;;;;;;;;5072941;28;20043;-67
2022/10/17 09:51:30;;;;;;;24.77;15.10;;;;;;;;;;5073009;28;20047;-66
2022/10/17 09:54:38;;;;;;;20.58;13.93;;;;;;;;;;5073058;28;20491;-66
2022/10/17 09:57:59;;;;;;;23.40;14.55;;;;;;;;;;5072417;28;20063;-65
2022/10/17 10:01:15;;;;;;;23.42;14.63;;;;;;;;;;5072742;28;20388;-66
2022/10/17 10:04:19;;;;;;;21.80;14.00;;;;;;;;;;5071776;28;20525;-66
2022/10/17 10:07:31;;;;;;;25.73;15.68;;;;;;;;;;5072049;28;20648;-66
2022/10/17 10:10:35;;;;;;;19.55;13.52;;;;;;;;;;5072307;28;20043;-66
2022/10/17 10:13:39;;;;;;;19.65;13.93;;;;;;;;;;5072316;28;20047;-66
2022/10/17 10:16:44;;;;;;;22.77;14.07;;;;;;;;;;5072739;28;20044;-66
2022/10/17 10:19:50;;;;;;;17.33;12.88;;;;;;;;;;5072219;28;20059;-66
2022/10/17 10:23:13;;;;;;;19.45;12.10;;;;;;;;;;5072387;28;20048;-66
2022/10/17 10:26:22;;;;;;;15.98;11.55;;;;;;;;;;5072489;28;20044;-66
2022/10/17 10:29:32;;;;;;;15.93;11.30;;;;;;;;;;5071823;28;20047;-67
2022/10/17 10:32:37;;;;;;;19.08;11.02;;;;;;;;;;5072067;28;20056;-66
2022/10/17 10:35:42;;;;;;;18.38;12.00;;;;;;;;;;5071753;28;20059;-66
2022/10/17 10:38:51;;;;;;;16.45;10.30;;;;;;;;;;5071666;28;20055;-68
2022/10/17 10:41:56;;;;;;;24.75;13.35;;;;;;;;;;5071826;28;20048;-66
2022/10/17 10:45:21;;;;;;;17.65;12.77;;;;;;;;;;5072013;28;20040;-68
2022/10/17 10:48:25;;;;;;;17.50;10.55;;;;;;;;;;5071869;28;20384;-68
2022/10/17 10:51:40;;;;;;;14.18;9.80;;;;;;;;;;5071694;28;20075;-67
2022/10/17 10:54:50;;;;;;;12.93;9.90;;;;;;;;;;5071704;28;20047;-66
2022/10/17 10:57:57;;;;;;;20.60;12.20;;;;;;;;;;5071938;28;20040;-67
2022/10/17 11:01:04;;;;;;;14.07;10.27;;;;;;;;;;5071581;28;20043;-67
2022/10/17 11:04:18;;;;;;;16.55;10.10;;;;;;;;;;5071855;28;20043;-67
2022/10/17 11:07:25;;;;;;;20.23;10.20;;;;;;;;;;5071415;28;20039;-67
2022/10/17 11:10:41;;;;;;;16.92;11.05;;;;;;;;;;5070691;28;20399;-67
2022/10/17 11:14:01;;;;;;;13.73;9.23;;;;;;;;;;5071628;28;20107;-66
2022/10/17 11:17:16;;;;;;;20.25;10.70;;;;;;;;;;5071745;28;20040;-67
2022/10/17 11:20:20;;;;;;;21.75;12.30;;;;;;;;;;5071280;28;20063;-67
2022/10/17 11:23:24;;;;;;;26.20;14.65;;;;;;;;;;5071106;28;20615;-67
2022/10/17 11:26:31;;;;;;;23.58;14.13;;;;;;;;;;5071407;28;20055;-67
2022/10/17 11:29:38;;;;;;;24.10;14.85;;;;;;;;;;5070593;28;20052;-66
2022/10/17 11:32:48;;;;;;;28.35;15.23;;;;;;;;;;5069517;28;20058;-67
2022/10/17 11:35:55;;;;;;;24.27;14.30;;;;;;;;;;5069327;28;20063;-67
2022/10/17 11:39:15;;;;;;;21.67;14.98;;;;;;;;;;5069336;28;20546;-67
2022/10/17 11:42:40;;;;;;;21.88;12.30;;;;;;;;;;5070542;28;20495;-67
2022/10/17 11:45:47;;;;;;;21.60;13.15;;;;;;;;;;5070640;28;20067;-67
2022/10/17 11:48:54;;;;;;;21.10;13.82;;;;;;;;;;5070503;28;20043;-67
2022/10/17 11:52:15;;;;;;;17.63;12.45;;;;;;;;;;5070791;28;20043;-67
2022/10/17 11:55:22;;;;;;;16.90;12.02;;;;;;;;;;5071408;28;20047;-67
2022/10/17 11:58:32;;;;;;;21.13;13.27;;;;;;;;;;5070973;28;20052;-67
2022/10/17 12:02:03;;;;;;;20.27;14.30;;;;;;;;;;5071222;28;20040;-67
2022/10/17 12:05:27;;;;;;;17.20;13.43;;;;;;;;;;5065980;28;20051;-67
2022/10/17 12:08:36;;;;;;;18.38;13.07;;;;;;;;;;5071118;28;20405;-66
2022/10/17 12:11:44;;;;;;;21.63;15.30;;;;;;;;;;5070872;28;20048;-67
2022/10/17 12:14:48;;;;;;;21.77;14.00;;;;;;;;;;5071001;28;20052;-67
2022/10/17 12:17:57;;;;;;;24.02;14.75;;;;;;;;;;5070301;28;20561;-67
2022/10/17 12:21:01;;;;;;;21.20;13.88;;;;;;;;;;5071629;28;20055;-67
2022/10/17 12:24:05;;;;;;;16.55;11.85;;;;;;;;;;5074496;28;20036;-67
2022/10/17 12:27:23;;;;;;;21.00;12.15;;;;;;;;;;5074093;28;20044;-67
2022/10/17 12:30:27;;;;;;;23.80;15.02;;;;;;;;;;5074226;28;20396;-67
2022/10/17 12:33:38;;;;;;;18.30;12.43;;;;;;;;;;5074589;28;20051;-67
2022/10/17 12:36:42;;;;;;;21.75;12.20;;;;;;;;;;5074471;28;20052;-67
2022/10/17 12:39:46;;;;;;;19.63;12.90;;;;;;;;;;5074315;28;20056;-68
2022/10/17 12:42:50;;;;;;;18.83;12.68;;;;;;;;;;5072854;28;20044;-68
2022/10/17 12:45:59;;;;;;;17.63;12.15;;;;;;;;;;5072749;28;20047;-67
2022/10/17 12:49:04;;;;;;;15.70;11.27;;;;;;;;;;5071930;28;20047;-67
2022/10/17 12:52:44;;;;;;;23.55;13.35;;;;;;;;;;5074122;28;20237;-67
2022/10/17 12:55:50;;;;;;;18.58;12.43;;;;;;;;;;5073833;28;20044;-67
2022/10/17 12:58:56;;;;;;;18.50;12.15;;;;;;;;;;5073945;28;20566;-66
2022/10/17 13:02:02;;;;;;;24.42;14.38;;;;;;;;;;5073760;28;20154;-67
2022/10/17 13:05:11;;;;;;;16.17;11.88;;;;;;;;;;5073845;28;20047;-66
2022/10/17 13:08:35;;;;;;;17.65;12.15;;;;;;;;;;5073772;28;20068;-67
2022/10/17 13:11:39;;;;;;;15.50;11.30;;;;;;;;;;5073721;28;20043;-67
2022/10/17 13:14:45;;;;;;;15.88;11.10;;;;;;;;;;5074056;28;20052;-68
2022/10/17 13:17:57;;;;;;;21.05;12.38;;;;;;;;;;5073740;28;20047;-67
2022/10/17 13:21:03;;;;;;;18.90;12.82;;;;;;;;;;5073658;28;20198;-66
2022/10/17 13:24:21;;;;;;;23.92;13.55;;;;;;;;;;5073435;28;20039;-66
2022/10/17 13:27:30;;;;;;;15.90;11.27;;;;;;;;;;5073383;28;20070;-66
2022/10/17 13:30:35;;;;;;;16.27;11.73;;;;;;;;;;5073016;28;20070;-66
2022/10/17 13:33:41;;;;;;;23.17;14.50;;;;;;;;;;5072376;28;20052;-67
2022/10/17 13:36:50;;;;;;;17.55;11.30;;;;;;;;;;5072481;28;20048;-67
2022/10/17 13:39:54;;;;;;;14.95;11.13;;;;;;;;;;5073150;28;20071;-65
2022/10/17 13:43:01;;;;;;;17.60;12.57;;;;;;;;;;5072659;28;20048;-64
2022/10/17 13:46:05;;;;;;;18.05;11.63;;;;;;;;;;5073220;28;20069;-64
2022/10/17 13:49:12;;;;;;;24.90;15.70;;;;;;;;;;5073046;28;20055;-63
2022/10/17 13:52:20;;;;;;;19.52;14.13;;;;;;;;;;5072735;28;20047;-64
2022/10/17 13:55:25;;;;;;;25.90;15.10;;;;;;;;;;5072839;28;20039;-63
2022/10/17 13:58:33;;;;;;;21.08;15.40;;;;;;;;;;5072651;28;20439;-67
2022/10/17 14:01:38;;;;;;;18.08;14.13;;;;;;;;;;5072200;28;20503;-65
2022/10/17 14:04:42;;;;;;;15.55;12.95;;;;;;;;;;5072073;28;20036;-68
2022/10/17 14:07:50;;;;;;;21.73;13.13;;;;;;;;;;5072959;28;20047;-66
2022/10/17 14:10:54;;;;;;;25.27;14.27;;;;;;;;;;5072607;28;20044;-72
2022/10/17 14:13:59;;;;;;;16.95;12.75;;;;;;;;;;5072772;28;20047;-66
2022/10/17 14:17:12;;;;;;;16.27;13.18;;;;;;;;;;5071714;28;20043;-63
2022/10/17 14:20:17;;;;;;;17.80;13.05;;;;;;;;;;5072116;28;20404;-63
2022/10/17 14:23:30;;;;;;;16.83;12.77;;;;;;;;;;5072551;28;20472;-70
2022/10/17 14:26:36;;;;;;;23.15;14.68;;;;;;;;;;5072227;28;20606;-67
2022/10/17 14:29:50;;;;;;;33.08;16.23;;;;;;;;;;5071827;28;20047;-67
2022/10/17 14:32:56;;;;;;;25.08;15.00;;;;;;;;;;5072308;28;20051;-70
2022/10/17 14:36:01;;;;;;;18.60;13.02;;;;;;;;;;5071850;28;20499;-68
2022/10/17 14:39:07;;;;;;;32.47;16.15;;;;;;;;;;5071485;28;20048;-69
2022/10/17 14:42:19;;;;;;;28.92;16.67;;;;;;;;;;5070854;28;20432;-67
2022/10/17 14:45:31;;;;;;;28.45;14.65;;;;;;;;;;5070850;28;20036;-69
2022/10/17 14:48:35;;;;;;;17.98;12.15;;;;;;;;;;5071382;28;20043;-68
2022/10/17 14:51:40;;;;;;;15.23;12.05;;;;;;;;;;5071782;28;20039;-66
2022/10/17 14:54:45;;;;;;;30.80;15.80;;;;;;;;;;5071921;28;20396;-67
2022/10/17 14:57:49;;;;;;;22.25;15.48;;;;;;;;;;5070693;28;20504;-72
2022/10/17 15:00:54;;;;;;;21.45;13.18;;;;;;;;;;5071317;28;20044;-65
2022/10/17 15:03:58;;;;;;;34.55;15.43;;;;;;;;;;5071344;28;20039;-67
2022/10/17 15:07:02;;;;;;;55.53;17.77;;;;;;;;;;5070168;28;20047;-71
2022/10/17 15:10:17;;;;;;;41.30;17.67;;;;;;;;;;5071318;28;20044;-67
2022/10/17 15:13:21;;;;;;;62.63;17.67;;;;;;;;;;5071610;28;20511;-69
2022/10/17 15:16:26;;;;;;;33.25;15.25;;;;;;;;;;5071485;28;20039;-67
2022/10/17 15:19:30;;;;;;;20.52;14.75;;;;;;;;;;5071039;28;20079;-69
2022/10/17 15:22:35;;;;;;;30.13;15.15;;;;;;;;;;5070123;28;20396;-69
2022/10/17 15:25:39;;;;;;;34.40;16.00;;;;;;;;;;5071228;28;20051;-66
2022/10/17 15:28:44;;;;;;;39.67;15.93;;;;;;;;;;5069205;28;20047;-65
2022/10/17 15:31:48;;;;;;;33.50;16.08;;;;;;;;;;5070707;28;20052;-66
2022/10/17 15:34:52;;;;;;;32.33;15.13;;;;;;;;;;5071070;28;20043;-68
2022/10/17 15:37:56;;;;;;;28.60;15.02;;;;;;;;;;5071202;28;20044;-68
2022/10/17 15:41:01;;;;;;;27.92;16.98;;;;;;;;;;5071179;28;20503;-66
2022/10/17 15:44:05;;;;;;;27.42;16.83;;;;;;;;;;5071070;28;20043;-67
2022/10/17 15:47:18;;;;;;;29.83;17.90;;;;;;;;;;5070087;28;20043;-66
2022/10/17 15:50:22;;;;;;;30.30;17.10;;;;;;;;;;5070767;28;20047;-67
2022/10/17 15:53:26;;;;;;;31.30;17.13;;;;;;;;;;5069837;28;20036;-67
2022/10/17 15:56:35;;;;;;;28.48;16.45;;;;;;;;;;5068787;28;20048;-73
2022/10/17 15:59:38;;;;;;;27.20;16.77;;;;;;;;;;5069828;28;20059;-65
2022/10/17 16:02:43;;;;;;;25.75;17.13;;;;;;;;;;5070272;28;20055;-72
2022/10/17 16:05:47;;;;;;;29.92;17.30;;;;;;;;;;5070685;28;20110;-67
2022/10/17 16:08:52;;;;;;;25.67;18.45;;;;;;;;;;5070703;28;20056;-66
2022/10/17 16:11:56;;;;;;;39.40;19.15;;;;;;;;;;5070760;28;20503;-66
2022/10/17 16:15:00;;;;;;;25.13;17.80;;;;;;;;;;5070512;28;20040;-68
2022/10/17 16:18:04;;;;;;;29.13;18.40;;;;;;;;;;5070194;28;20043;-67
2022/10/17 16:21:11;;;;;;;38.78;19.70;;;;;;;;;;5067872;28;20452;-67
2022/10/17 16:24:18;;;;;;;33.50;20.10;;;;;;;;;;5069695;28;20059;-66
2022/10/17 16:27:23;;;;;;;44.47;31.38;;;;;;;;;;5067632;28;20044;-68
2022/10/17 16:30:28;;;;;;;28.73;21.15;;;;;;;;;;5066841;28;20051;-69
2022/10/17 16:33:34;;;;;;;28.10;19.98;;;;;;;;;;5067511;28;20494;-69
2022/10/17 16:36:39;;;;;;;37.60;20.90;;;;;;;;;;5069306;28;20043;-68
2022/10/17 16:39:47;;;;;;;35.13;22.98;;;;;;;;;;5069894;28;20055;-68
2022/10/17 16:42:52;;;;;;;43.60;26.60;;;;;;;;;;5070202;28;20032;-73
2022/10/17 16:45:56;;;;;;;64.80;31.17;;;;;;;;;;5069908;28;20510;-73
2022/10/17 16:49:00;;;;;;;55.78;29.48;;;;;;;;;;5070318;28;20047;-73
2022/10/17 16:52:05;;;;;;;43.25;27.50;;;;;;;;;;5070301;28;20051;-74
2022/10/17 16:55:09;;;;;;;47.50;27.95;;;;;;;;;;5070133;28;20055;-72
2022/10/17 16:58:13;;;;;;;53.53;27.05;;;;;;;;;;5070070;28;20039;-71
2022/10/17 17:01:19;;;;;;;48.45;25.90;;;;;;;;;;5070114;28;20048;-71
2022/10/17 17:04:24;;;;;;;43.88;25.13;;;;;;;;;;5070226;28;20051;-73
2022/10/17 17:07:28;;;;;;;39.17;24.25;;;;;;;;;;5069554;28;20036;-76
2022/10/17 17:10:32;;;;;;;38.85;24.30;;;;;;;;;;5072602;28;20044;-73
2022/10/17 17:13:36;;;;;;;38.95;24.25;;;;;;;;;;5073581;28;20388;-73
2022/10/17 17:16:42;;;;;;;32.83;23.88;;;;;;;;;;5073419;28;20515;-73
2022/10/17 17:19:46;;;;;;;35.10;24.90;;;;;;;;;;5073290;28;20059;-73
2022/10/17 17:22:51;;;;;;;32.00;24.85;;;;;;;;;;5073339;28;20039;-73
2022/10/17 17:25:59;;;;;;;37.88;24.42;;;;;;;;;;5072422;28;20063;-72
2022/10/17 17:29:04;;;;;;;43.50;27.17;;;;;;;;;;5073090;28;20040;-74
2022/10/17 17:32:08;;;;;;;55.78;26.77;;;;;;;;;;5073076;28;20051;-72
2022/10/17 17:35:12;;;;;;;38.70;26.90;;;;;;;;;;5072779;28;20490;-72
2022/10/17 17:38:17;;;;;;;51.45;27.52;;;;;;;;;;5072675;28;20048;-71
2022/10/17 17:41:21;;;;;;;46.08;27.35;;;;;;;;;;5073352;28;20522;-72
2022/10/17 17:44:25;;;;;;;55.58;28.75;;;;;;;;;;5073224;28;20035;-72
2022/10/17 17:47:29;;;;;;;52.13;28.63;;;;;;;;;;5073433;28;20506;-72
2022/10/17 17:50:37;;;;;;;56.97;29.65;;;;;;;;;;5073500;28;20044;-74
2022/10/17 17:53:42;;;;;;;43.80;28.85;;;;;;;;;;5073301;28;20070;-74
2022/10/17 17:56:46;;;;;;;65.35;28.33;;;;;;;;;;5072903;28;20052;-73
2022/10/17 17:59:51;;;;;;;45.70;27.15;;;;;;;;;;5072855;28;20075;-74
2022/10/17 18:02:55;;;;;;;49.20;27.63;;;;;;;;;;5073408;28;20052;-74
2022/10/17 18:06:00;;;;;;;41.95;25.98;;;;;;;;;;5071672;28;20424;-73
2022/10/17 18:09:05;;;;;;;45.92;28.73;;;;;;;;;;5071012;28;20059;-73